APL Denmark — A8JX9 — position and weather

sailwx.info

Track history (hours):
 
Tides and Currents Weather Stations Pressure Air Temp Water Temp Dewpoint Dewpoint Depression Visibility Wind Speed Wind Dir Waves Ship Positions

APL Denmark

Last reported at 2014-Jul-30 06:32 UTC. Time now 2014-Jul-30 07:02 UTC.
Position N 52°21' E 003°28'.

Length 277 m; beam 40 m; draft 14 m.

Type: Ship (hazmat cat A). MMSI: 636091157.

Date/timePositionNaut miles runAvg speedWind from/ knotsBaromVisibWave heightAir tempDewpointWater temp
2014-Jul-30 06:32N 52°21' E 003°28'1313.5
2014-Jul-30 05:33N 52°11' E 003°12'3115.4
2014-Jul-30 03:33N 51°48' E 002°39'1515.2
2014-Jul-30 02:33N 51°37' E 002°23'1515.3
2014-Jul-30 01:33N 51°26' E 002°06'1515.1
2014-Jul-30 00:34N 51°14' E 001°50'1514.7
2014-Jul-29 23:34N 51°03' E 001°36'1413.6
2014-Jul-29 22:33N 50°51' E 001°25'1312.6
2014-Jul-29 21:33N 50°39' E 001°17'1413.3
2014-Jul-29 20:31N 50°30' E 001°01'1313.1
2014-Jul-29 19:33N 50°26' E 000°42'1312.8
2014-Jul-29 18:31N 50°23' E 000°22'1312.3
2014-Jul-29 17:27N 50°19' E 000°02'1112.0
2014-Jul-29 16:33N 50°17' W 000°14'1111.4
2014-Jul-29 15:33N 50°14' W 000°32'1111.2
2014-Jul-29 14:33N 50°11' W 000°49'1211.7
2014-Jul-29 13:33N 50°08' W 001°06'2913.6
2014-Jul-29 11:23N 49°59' W 001°50'66413.6
2014-Jul-27 10:26N 40°28' W 009°50'1614.1
2014-Jul-27 09:18N 40°12' W 009°50'3914.2
2014-Jul-27 06:33N 39°33' W 009°50'1514.5
2014-Jul-27 05:33N 39°18' W 009°50'1514.9
2014-Jul-27 04:33N 39°03' W 009°51'1514.7
2014-Jul-27 03:33N 38°49' W 009°51'1514.8
2014-Jul-27 02:33N 38°34' W 009°49'1515.1
2014-Jul-27 01:33N 38°19' W 009°44'1514.8
2014-Jul-27 00:32N 38°05' W 009°40'1414.5
2014-Jul-26 23:33N 37°51' W 009°36'1514.7
2014-Jul-26 22:33N 37°36' W 009°32'1414.5
2014-Jul-26 21:33N 37°22' W 009°28'1514.7
2014-Jul-26 20:33N 37°08' W 009°23'1414.1
2014-Jul-26 19:33N 36°54' W 009°19'1413.5
2014-Jul-26 18:31N 36°44' W 009°07'1414.3
2014-Jul-26 17:33N 36°40' W 008°51'1414.0
2014-Jul-26 16:33N 36°35' W 008°35'1413.8
2014-Jul-26 15:33N 36°31' W 008°18'1414.1
2014-Jul-26 14:33N 36°27' W 008°01'1414.0
2014-Jul-26 13:33N 36°23' W 007°45'1414.0
2014-Jul-26 12:33N 36°19' W 007°28'1814.2
2014-Jul-26 11:16N 36°13' W 007°07'1014.2
2014-Jul-26 10:32N 36°09' W 006°55'1414.5
2014-Jul-26 09:33N 36°05' W 006°38'1814.3
2014-Jul-26 08:19N 35°59' W 006°17'34313.6
2014-Jul-25 07:06N 37°04' E 000°42'3316.7
2014-Jul-25 05:08N 37°12' E 001°22'814.1
2014-Jul-25 04:33N 37°14' E 001°32'1414.1
2014-Jul-25 03:33N 37°18' E 001°49'3514.4
2014-Jul-25 01:06N 37°27' E 002°32'814.4
2014-Jul-25 00:33N 37°29' E 002°41'1414.4
2014-Jul-24 23:33N 37°33' E 002°59'1414.4
2014-Jul-24 22:33N 37°37' E 003°17'1414.5
2014-Jul-24 21:33N 37°41' E 003°34'1414.4
2014-Jul-24 20:33N 37°45' E 003°52'1414.5
2014-Jul-24 19:33N 37°49' E 004°09'1515.0
2014-Jul-24 18:32N 37°52' E 004°28'1515.1
2014-Jul-24 17:33N 37°56' E 004°46'1514.9
2014-Jul-24 16:34N 38°00' E 005°04'1514.8
2014-Jul-24 15:34N 38°04' E 005°23'1514.6
2014-Jul-24 14:33N 38°08' E 005°40'1414.1
2014-Jul-24 13:34N 38°12' E 005°57'1514.4
2014-Jul-24 12:33N 38°15' E 006°16'1515.0
2014-Jul-24 11:33N 38°19' E 006°34'1915.3
2014-Jul-24 10:20N 38°24' E 006°57'1114.7
2014-Jul-24 09:33N 38°27' E 007°11'1714.9
2014-Jul-24 08:27N 38°31' E 007°31'1314.4
2014-Jul-24 07:32N 38°35' E 007°47'1614.4
2014-Jul-24 06:25N 38°39' E 008°07'1514.2
2014-Jul-24 05:21N 38°43' E 008°26'1314.6
2014-Jul-24 04:30N 38°46' E 008°42'1414.7
2014-Jul-24 03:33N 38°50' E 008°59'1514.7
2014-Jul-24 02:33N 39°02' E 009°09'1111.0
2014-Jul-24 01:33N 39°13' E 009°04'0 0.1
2014-Jul-24 00:33N 39°13' E 009°04'0 0.0
2014-Jul-23 23:33N 39°13' E 009°04'0 0.0
2014-Jul-23 20:33N 39°13' E 009°04'0 0.0
2014-Jul-23 19:33N 39°13' E 009°04'0 0.0
2014-Jul-23 18:33N 39°13' E 009°04'0 0.0
2014-Jul-23 10:06N 39°13' E 009°04'0 0.0
2014-Jul-23 09:33N 39°13' E 009°04'3 3.3
2014-Jul-23 08:33N 39°10' E 009°06'1010.1
2014-Jul-23 07:33N 39°02' E 009°15'1413.6
2014-Jul-23 06:32N 38°55' E 009°30'22214.8
2014-Jul-22 15:31N 36°57' E 013°28'1414.6
2014-Jul-22 14:34N 36°49' E 013°43'1514.5
2014-Jul-22 13:34N 36°42' E 013°58'1414.4
2014-Jul-22 12:34N 36°34' E 014°14'1414.4
2014-Jul-22 11:34N 36°26' E 014°29'69514.6
2014-Jul-20 12:00N 32°54' E 027°54'   280 / 171009.510.8 1.028.321.827.0
Track history (hours):
 
Tides and Currents Weather Stations Pressure Air Temp Water Temp Dewpoint Dewpoint Depression Visibility Wind Speed Wind Dir Waves Ship Positions

APL Denmark

Last reported at 2014-Jul-30 06:32 UTC. Time now 2014-Jul-30 07:02 UTC.
Position N 52°21' E 003°28'.

Length 277 m; beam 40 m; draft 14 m.

Type: Ship (hazmat cat A). MMSI: 636091157.

Date/timePositionNaut miles runAvg speedWind from/ knotsBaromVisibWave heightAir tempDewpointWater temp
2014-Jul-30 06:32N 52°21' E 003°28'1313.5
2014-Jul-30 05:33N 52°11' E 003°12'3115.4
2014-Jul-30 03:33N 51°48' E 002°39'1515.2
2014-Jul-30 02:33N 51°37' E 002°23'1515.3
2014-Jul-30 01:33N 51°26' E 002°06'1515.1
2014-Jul-30 00:34N 51°14' E 001°50'1514.7
2014-Jul-29 23:34N 51°03' E 001°36'1413.6
2014-Jul-29 22:33N 50°51' E 001°25'1312.6
2014-Jul-29 21:33N 50°39' E 001°17'1413.3
2014-Jul-29 20:31N 50°30' E 001°01'1313.1
2014-Jul-29 19:33N 50°26' E 000°42'1312.8
2014-Jul-29 18:31N 50°23' E 000°22'1312.3
2014-Jul-29 17:27N 50°19' E 000°02'1112.0
2014-Jul-29 16:33N 50°17' W 000°14'1111.4
2014-Jul-29 15:33N 50°14' W 000°32'1111.2
2014-Jul-29 14:33N 50°11' W 000°49'1211.7
2014-Jul-29 13:33N 50°08' W 001°06'2913.6
2014-Jul-29 11:23N 49°59' W 001°50'66413.6
2014-Jul-27 10:26N 40°28' W 009°50'1614.1
2014-Jul-27 09:18N 40°12' W 009°50'3914.2
2014-Jul-27 06:33N 39°33' W 009°50'1514.5
2014-Jul-27 05:33N 39°18' W 009°50'1514.9
2014-Jul-27 04:33N 39°03' W 009°51'1514.7
2014-Jul-27 03:33N 38°49' W 009°51'1514.8
2014-Jul-27 02:33N 38°34' W 009°49'1515.1
2014-Jul-27 01:33N 38°19' W 009°44'1514.8
2014-Jul-27 00:32N 38°05' W 009°40'1414.5
2014-Jul-26 23:33N 37°51' W 009°36'1514.7
2014-Jul-26 22:33N 37°36' W 009°32'1414.5
2014-Jul-26 21:33N 37°22' W 009°28'1514.7
2014-Jul-26 20:33N 37°08' W 009°23'1414.1
2014-Jul-26 19:33N 36°54' W 009°19'1413.5
2014-Jul-26 18:31N 36°44' W 009°07'1414.3
2014-Jul-26 17:33N 36°40' W 008°51'1414.0
2014-Jul-26 16:33N 36°35' W 008°35'1413.8
2014-Jul-26 15:33N 36°31' W 008°18'1414.1
2014-Jul-26 14:33N 36°27' W 008°01'1414.0
2014-Jul-26 13:33N 36°23' W 007°45'1414.0
2014-Jul-26 12:33N 36°19' W 007°28'1814.2
2014-Jul-26 11:16N 36°13' W 007°07'1014.2
2014-Jul-26 10:32N 36°09' W 006°55'1414.5
2014-Jul-26 09:33N 36°05' W 006°38'1814.3
2014-Jul-26 08:19N 35°59' W 006°17'34313.6
2014-Jul-25 07:06N 37°04' E 000°42'3316.7
2014-Jul-25 05:08N 37°12' E 001°22'814.1
2014-Jul-25 04:33N 37°14' E 001°32'1414.1
2014-Jul-25 03:33N 37°18' E 001°49'3514.4
2014-Jul-25 01:06N 37°27' E 002°32'814.4
2014-Jul-25 00:33N 37°29' E 002°41'1414.4
2014-Jul-24 23:33N 37°33' E 002°59'1414.4
2014-Jul-24 22:33N 37°37' E 003°17'1414.5
2014-Jul-24 21:33N 37°41' E 003°34'1414.4
2014-Jul-24 20:33N 37°45' E 003°52'1414.5
2014-Jul-24 19:33N 37°49' E 004°09'1515.0
2014-Jul-24 18:32N 37°52' E 004°28'1515.1
2014-Jul-24 17:33N 37°56' E 004°46'1514.9
2014-Jul-24 16:34N 38°00' E 005°04'1514.8
2014-Jul-24 15:34N 38°04' E 005°23'1514.6
2014-Jul-24 14:33N 38°08' E 005°40'1414.1
2014-Jul-24 13:34N 38°12' E 005°57'1514.4
2014-Jul-24 12:33N 38°15' E 006°16'1515.0
2014-Jul-24 11:33N 38°19' E 006°34'1915.3
2014-Jul-24 10:20N 38°24' E 006°57'1114.7
2014-Jul-24 09:33N 38°27' E 007°11'1714.9
2014-Jul-24 08:27N 38°31' E 007°31'1314.4
2014-Jul-24 07:32N 38°35' E 007°47'1614.4
2014-Jul-24 06:25N 38°39' E 008°07'1514.2
2014-Jul-24 05:21N 38°43' E 008°26'1314.6
2014-Jul-24 04:30N 38°46' E 008°42'1414.7
2014-Jul-24 03:33N 38°50' E 008°59'1514.7
2014-Jul-24 02:33N 39°02' E 009°09'1111.0
2014-Jul-24 01:33N 39°13' E 009°04'0 0.1
2014-Jul-24 00:33N 39°13' E 009°04'0 0.0
2014-Jul-23 23:33N 39°13' E 009°04'0 0.0
2014-Jul-23 20:33N 39°13' E 009°04'0 0.0
2014-Jul-23 19:33N 39°13' E 009°04'0 0.0
2014-Jul-23 18:33N 39°13' E 009°04'0 0.0
2014-Jul-23 10:06N 39°13' E 009°04'0 0.0
2014-Jul-23 09:33N 39°13' E 009°04'3 3.3
2014-Jul-23 08:33N 39°10' E 009°06'1010.1
2014-Jul-23 07:33N 39°02' E 009°15'1413.6
2014-Jul-23 06:32N 38°55' E 009°30'22214.8
2014-Jul-22 15:31N 36°57' E 013°28'1414.6
2014-Jul-22 14:34N 36°49' E 013°43'1514.5
2014-Jul-22 13:34N 36°42' E 013°58'1414.4
2014-Jul-22 12:34N 36°34' E 014°14'1414.4
2014-Jul-22 11:34N 36°26' E 014°29'69514.6
2014-Jul-20 12:00N 32°54' E 027°54'   280 / 171009.510.8 1.028.321.827.0

Dump ship's entire track history